createdAt,value
2017-05-15T00:01:05.389Z,93.20
2017-05-15T00:03:33.614Z,93.10
2017-05-15T00:06:01.865Z,93.30
2017-05-15T00:08:30.085Z,93.20
2017-05-15T00:10:58.312Z,93.10
2017-05-15T00:13:26.535Z,93.00
2017-05-15T00:15:54.744Z,92.90
2017-05-15T00:18:23.700Z,92.60
2017-05-15T00:20:51.927Z,92.40
2017-05-15T00:23:20.151Z,92.20
2017-05-15T00:25:48.379Z,92.00
2017-05-15T00:28:16.599Z,91.90
2017-05-15T00:30:44.816Z,92.10
2017-05-15T00:33:13.772Z,92.30
2017-05-15T00:35:41.998Z,92.10
2017-05-15T00:38:10.234Z,91.70
2017-05-15T00:40:38.451Z,91.70
2017-05-15T00:43:06.708Z,91.80
2017-05-15T00:45:35.658Z,91.90
2017-05-15T00:48:03.868Z,91.80
2017-05-15T00:50:32.836Z,92.10
2017-05-15T00:53:01.043Z,92.30
2017-05-15T00:55:29.269Z,92.10
2017-05-15T00:57:57.490Z,92.10
2017-05-15T01:00:25.730Z,92.00
2017-05-15T01:02:53.955Z,92.20
2017-05-15T01:05:22.175Z,92.30
2017-05-15T01:07:50.399Z,92.60
2017-05-15T01:10:18.634Z,92.60
2017-05-15T01:12:46.862Z,92.60
2017-05-15T01:15:15.087Z,92.60
2017-05-15T01:17:43.320Z,92.50
2017-05-15T01:20:11.544Z,92.50
2017-05-15T01:22:40.519Z,92.40
2017-05-15T01:25:08.723Z,92.10
2017-05-15T01:27:36.952Z,92.10
2017-05-15T01:30:05.167Z,92.30
2017-05-15T01:32:34.135Z,92.30
2017-05-15T01:35:02.343Z,92.40
2017-05-15T01:37:30.582Z,92.40
2017-05-15T01:39:58.788Z,92.10
2017-05-15T01:42:27.019Z,92.00
2017-05-15T01:44:55.229Z,92.20
2017-05-15T01:47:24.199Z,92.50
2017-05-15T01:49:52.423Z,92.60
2017-05-15T01:52:20.643Z,92.70
2017-05-15T01:54:48.855Z,92.60
2017-05-15T01:57:17.101Z,92.30
2017-05-15T01:59:44.562Z,92.30
2017-05-15T02:02:13.520Z,92.70
2017-05-15T02:04:41.739Z,92.40
2017-05-15T02:07:10.714Z,92.40
2017-05-15T02:09:38.938Z,92.30
2017-05-15T02:12:07.157Z,92.70
2017-05-15T02:14:35.393Z,92.80
2017-05-15T02:17:03.618Z,93.00
2017-05-15T02:19:32.573Z,93.10
2017-05-15T02:22:00.798Z,93.00
2017-05-15T02:24:29.023Z,93.00
2017-05-15T02:26:57.238Z,93.00
2017-05-15T02:29:26.235Z,93.00
2017-05-15T02:31:54.459Z,93.30
2017-05-15T02:34:22.684Z,93.00
2017-05-15T02:36:50.907Z,93.00
2017-05-15T02:39:19.135Z,93.00
2017-05-15T02:41:47.356Z,93.00
2017-05-15T02:44:15.580Z,93.00
2017-05-15T02:46:45.026Z,92.80
2017-05-15T02:49:13.203Z,92.60
2017-05-15T02:51:41.423Z,92.40
2017-05-15T02:54:10.372Z,92.40
2017-05-15T02:56:38.605Z,92.30
2017-05-15T02:59:06.816Z,92.30
2017-05-15T03:01:35.019Z,92.10
2017-05-15T03:04:03.223Z,92.30
2017-05-15T03:06:31.451Z,92.10
2017-05-15T03:08:59.666Z,92.30
2017-05-15T03:11:27.873Z,92.30
2017-05-15T03:13:56.080Z,92.20
2017-05-15T03:16:24.283Z,92.20
2017-05-15T03:18:52.494Z,92.40
2017-05-15T03:21:20.707Z,92.50
2017-05-15T03:23:48.924Z,92.50
2017-05-15T03:26:17.147Z,92.60
2017-05-15T03:31:39.330Z,92.30
2017-05-15T03:34:08.299Z,92.10
2017-05-15T03:36:37.282Z,92.30
2017-05-15T03:39:05.503Z,92.00
2017-05-15T03:41:33.738Z,92.00
2017-05-15T03:44:01.948Z,92.30
2017-05-15T03:46:30.161Z,92.20
2017-05-15T03:48:58.391Z,92.40
2017-05-15T03:51:26.633Z,92.40
2017-05-15T03:53:54.853Z,92.40
2017-05-15T03:56:23.085Z,92.70
2017-05-15T03:58:51.310Z,92.60
2017-05-15T04:01:19.555Z,92.50
2017-05-15T04:03:48.522Z,92.70
2017-05-15T04:06:16.750Z,92.50
2017-05-15T04:08:44.967Z,92.10
2017-05-15T04:11:13.194Z,91.90
2017-05-15T04:13:41.432Z,92.40
2017-05-15T04:16:10.414Z,92.30
2017-05-15T04:18:38.650Z,92.10
2017-05-15T04:21:06.860Z,92.00
2017-05-15T04:23:35.103Z,91.80
2017-05-15T04:26:03.319Z,91.70
2017-05-15T04:28:32.292Z,91.80
2017-05-15T04:31:00.529Z,92.00
2017-05-15T04:33:28.752Z,92.20
2017-05-15T04:35:56.993Z,92.10
2017-05-15T04:38:26.001Z,92.00
2017-05-15T04:40:54.199Z,92.10
2017-05-15T04:43:23.203Z,92.50
2017-05-15T04:45:52.166Z,92.60
2017-05-15T04:48:20.392Z,92.40
2017-05-15T04:50:48.606Z,92.40
2017-05-15T04:53:16.812Z,92.40
2017-05-15T04:55:45.763Z,92.00
2017-05-15T04:58:13.988Z,91.70
2017-05-15T05:00:42.238Z,91.50
2017-05-15T05:03:11.219Z,91.10
2017-05-15T05:05:39.434Z,90.80
2017-05-15T05:08:07.648Z,91.30
2017-05-15T05:10:35.866Z,91.40
2017-05-15T05:13:04.092Z,91.30
2017-05-15T05:15:32.317Z,91.10
2017-05-15T05:18:01.264Z,91.80
2017-05-15T05:20:46.182Z,91.80
2017-05-15T05:23:24.099Z,91.80
2017-05-15T05:26:12.915Z,91.50
2017-05-15T05:28:52.903Z,91.00
2017-05-15T05:31:47.895Z,91.30
2017-05-15T05:34:37.778Z,90.80
2017-05-15T05:37:29.825Z,90.50
2017-05-15T05:40:13.375Z,91.60
2017-05-15T05:43:01.299Z,92.20
2017-05-15T05:45:30.258Z,91.60
2017-05-15T05:47:58.475Z,91.70
2017-05-15T05:50:26.714Z,91.90
2017-05-15T05:52:54.960Z,92.10
2017-05-15T05:55:48.780Z,91.90
2017-05-15T05:58:17.731Z,91.50
2017-05-15T06:00:57.652Z,91.10
2017-05-15T06:03:37.813Z,91.20
2017-05-15T06:06:30.540Z,92.00
2017-05-15T06:09:10.582Z,92.00
2017-05-15T06:11:50.618Z,91.90
2017-05-15T06:14:31.501Z,92.10
2017-05-15T06:17:11.588Z,92.50
2017-05-15T06:19:39.316Z,91.80
2017-05-15T06:22:19.412Z,91.80
2017-05-15T06:24:59.503Z,91.80
2017-05-15T06:27:28.451Z,91.20
2017-05-15T06:29:56.686Z,90.40
2017-05-15T06:32:24.918Z,90.70
2017-05-15T06:34:53.139Z,90.60
2017-05-15T06:37:21.370Z,89.90
2017-05-15T06:40:01.375Z,89.60
2017-05-15T06:42:36.284Z,87.30
2017-05-15T06:45:04.551Z,84.70
2017-05-15T06:47:33.525Z,84.00
2017-05-15T06:50:01.731Z,80.60
2017-05-15T06:52:30.404Z,73.80
2017-05-15T06:54:58.614Z,65.80
2017-05-15T06:57:26.875Z,58.80
2017-05-15T06:59:55.119Z,51.60
2017-05-15T07:02:23.348Z,44.50
2017-05-15T07:04:51.571Z,40.10
2017-05-15T07:07:19.299Z,37.60
2017-05-15T07:09:47.084Z,35.40
2017-05-15T07:12:15.586Z,38.30
2017-05-15T07:14:43.361Z,36.00
2017-05-15T07:17:11.135Z,41.70
2017-05-15T07:19:38.905Z,46.80
2017-05-15T07:22:06.683Z,39.20
2017-05-15T07:24:34.442Z,36.90
2017-05-15T07:27:02.229Z,34.30
2017-05-15T07:29:29.980Z,32.10
2017-05-15T07:31:57.727Z,32.90
2017-05-15T07:34:25.501Z,36.00
2017-05-15T07:36:53.262Z,42.50
2017-05-15T07:39:21.031Z,42.90
2017-05-15T07:41:48.783Z,41.30
2017-05-15T07:44:16.555Z,39.10
2017-05-15T07:46:44.318Z,39.70
2017-05-15T07:49:12.090Z,38.60
2017-05-15T07:51:39.835Z,37.30
2017-05-15T07:54:08.069Z,40.60
2017-05-15T07:56:36.283Z,44.60
2017-05-15T07:59:04.510Z,44.60
2017-05-15T08:01:32.717Z,46.20
2017-05-15T08:04:00.949Z,45.20
2017-05-15T08:06:29.181Z,53.20
2017-05-15T08:08:57.389Z,52.60
2017-05-15T08:11:25.611Z,57.30
2017-05-15T08:13:53.839Z,55.30
2017-05-15T08:16:22.055Z,53.50
2017-05-15T08:18:50.286Z,57.40
2017-05-15T08:21:18.521Z,56.10
2017-05-15T08:23:46.732Z,55.30
2017-05-15T08:26:15.702Z,58.90
2017-05-15T08:28:43.926Z,57.20
2017-05-15T08:31:12.167Z,62.40
2017-05-15T08:33:41.150Z,64.20
2017-05-15T08:36:10.112Z,63.00
2017-05-15T08:38:38.336Z,58.70
2017-05-15T08:41:06.571Z,52.90
2017-05-15T08:43:34.786Z,51.40
2017-05-15T08:46:03.009Z,48.60
2017-05-15T08:48:31.250Z,47.90
2017-05-15T08:50:59.464Z,47.60
2017-05-15T08:53:27.693Z,48.40
2017-05-15T08:55:55.926Z,42.40
2017-05-15T08:58:24.162Z,40.90
2017-05-15T09:00:52.381Z,44.30
2017-05-15T09:03:21.355Z,42.80
2017-05-15T09:05:49.586Z,40.00
2017-05-15T09:08:17.801Z,41.10
2017-05-15T09:10:46.015Z,40.50
2017-05-15T09:13:14.243Z,36.10
2017-05-15T09:15:42.474Z,33.60
2017-05-15T09:18:10.684Z,40.50
2017-05-15T09:20:38.918Z,38.40
2017-05-15T09:23:07.137Z,39.70
2017-05-15T09:25:35.376Z,42.00
2017-05-15T09:28:03.583Z,45.90
2017-05-15T09:30:31.801Z,48.10
2017-05-15T09:33:00.762Z,44.00
2017-05-15T09:35:29.002Z,41.20
2017-05-15T09:37:57.237Z,44.90
2017-05-15T09:40:26.214Z,47.00
2017-05-15T09:42:54.428Z,45.70
2017-05-15T09:45:22.640Z,45.50
2017-05-15T09:47:50.871Z,42.00
2017-05-15T09:50:19.097Z,41.20
2017-05-15T09:52:47.344Z,42.40
2017-05-15T09:55:16.301Z,40.80
2017-05-15T09:57:44.529Z,40.90
2017-05-15T10:00:12.757Z,39.50
2017-05-15T10:02:40.971Z,39.50
2017-05-15T10:05:09.946Z,42.40
2017-05-15T10:07:38.183Z,46.20
2017-05-15T10:10:06.414Z,45.40
2017-05-15T10:12:34.657Z,44.70
2017-05-15T10:15:02.882Z,42.30
2017-05-15T10:17:31.107Z,41.70
2017-05-15T10:19:59.319Z,42.00
2017-05-15T10:22:27.564Z,40.50
2017-05-15T10:24:55.772Z,39.00
2017-05-15T10:27:24.003Z,40.10
2017-05-15T10:29:52.234Z,42.00
2017-05-15T10:32:20.455Z,45.40
2017-05-15T10:34:48.682Z,47.40
2017-05-15T10:37:16.910Z,50.30
2017-05-15T10:39:45.124Z,50.00
2017-05-15T10:42:13.331Z,48.60
2017-05-15T10:44:41.562Z,47.20
2017-05-15T10:47:09.776Z,45.50
2017-05-15T10:49:38.006Z,46.90
2017-05-15T10:52:06.225Z,43.50
2017-05-15T10:54:34.496Z,44.90
2017-05-15T10:57:02.689Z,41.00
2017-05-15T10:59:30.896Z,42.10
2017-05-15T11:01:59.871Z,41.10
2017-05-15T11:04:28.846Z,40.60
2017-05-15T11:06:57.079Z,37.50
2017-05-15T11:09:25.292Z,44.20
2017-05-15T11:11:53.520Z,41.80
2017-05-15T11:14:21.746Z,44.40
2017-05-15T11:16:49.963Z,43.40
2017-05-15T11:19:18.172Z,44.60
2017-05-15T11:21:46.425Z,42.30
2017-05-15T11:24:14.643Z,44.90
2017-05-15T11:26:42.892Z,46.30
2017-05-15T11:29:11.142Z,45.90
2017-05-15T11:31:39.384Z,46.30
2017-05-15T11:34:08.341Z,46.20
2017-05-15T11:36:36.558Z,46.20
2017-05-15T11:39:05.523Z,46.00
2017-05-15T11:41:33.750Z,41.40
2017-05-15T11:44:01.998Z,41.70
2017-05-15T11:46:30.957Z,41.10
2017-05-15T11:48:59.190Z,39.80
2017-05-15T11:51:28.260Z,40.60
2017-05-15T11:53:57.222Z,39.00
2017-05-15T11:56:25.455Z,37.80
2017-05-15T11:58:53.682Z,37.20
2017-05-15T12:01:21.896Z,36.00
2017-05-15T12:03:50.115Z,34.30
2017-05-15T12:06:18.369Z,34.30
2017-05-15T12:08:46.589Z,32.70
2017-05-15T12:11:14.796Z,33.50
2017-05-15T12:13:43.769Z,34.90
2017-05-15T12:16:12.379Z,37.60
2017-05-15T12:18:41.344Z,41.00
2017-05-15T12:21:09.556Z,42.10
2017-05-15T12:23:37.797Z,42.80
2017-05-15T12:26:06.022Z,42.20
2017-05-15T12:28:34.236Z,41.60
2017-05-15T12:31:02.457Z,42.50
2017-05-15T12:33:30.685Z,40.00
2017-05-15T12:35:58.906Z,40.50
2017-05-15T12:38:27.119Z,42.40
2017-05-15T12:40:55.341Z,42.20
2017-05-15T12:43:23.583Z,41.30
2017-05-15T12:45:51.807Z,41.60
2017-05-15T12:48:20.035Z,42.20
2017-05-15T12:50:48.239Z,41.60
2017-05-15T12:53:17.195Z,42.90
2017-05-15T12:55:45.411Z,42.70
2017-05-15T12:58:13.621Z,41.00
2017-05-15T13:00:42.571Z,40.80
2017-05-15T13:03:10.783Z,39.60
2017-05-15T13:05:39.740Z,40.60
2017-05-15T13:08:07.947Z,38.10
2017-05-15T13:10:36.156Z,37.70
2017-05-15T13:13:04.363Z,39.80
2017-05-15T13:15:32.575Z,37.00
2017-05-15T13:18:01.527Z,37.60
2017-05-15T13:20:29.747Z,38.70
2017-05-15T13:22:57.963Z,39.90
2017-05-15T13:25:26.228Z,41.50
2017-05-15T13:27:54.463Z,43.80
2017-05-15T13:30:23.417Z,41.60
2017-05-15T13:32:51.631Z,40.60
2017-05-15T13:35:19.883Z,40.00
2017-05-15T13:37:48.090Z,39.40
2017-05-15T13:40:16.355Z,37.80
2017-05-15T13:42:44.577Z,41.20
2017-05-15T13:45:12.783Z,38.40
2017-05-15T13:47:41.877Z,40.20
2017-05-15T13:50:10.084Z,39.20
2017-05-15T13:52:38.313Z,37.80
2017-05-15T13:55:06.519Z,37.80
2017-05-15T13:57:34.767Z,38.80
2017-05-15T14:00:02.975Z,37.20
2017-05-15T14:02:31.187Z,39.90
2017-05-15T14:04:59.410Z,38.20
2017-05-15T14:07:28.351Z,39.50
2017-05-15T14:09:56.564Z,39.70
2017-05-15T14:12:24.771Z,40.20
2017-05-15T14:14:52.995Z,39.80
2017-05-15T14:17:21.204Z,40.60
2017-05-15T14:19:49.436Z,40.30
2017-05-15T14:22:17.927Z,38.80
2017-05-15T14:24:46.203Z,38.30
2017-05-15T14:27:14.419Z,38.30
2017-05-15T14:29:42.627Z,40.00
2017-05-15T14:32:10.848Z,39.60
2017-05-15T14:34:39.804Z,40.30
2017-05-15T14:37:08.027Z,39.90
2017-05-15T14:39:36.244Z,38.20
2017-05-15T14:42:04.475Z,39.20
2017-05-15T14:44:32.691Z,37.60
2017-05-15T14:47:00.908Z,40.40
2017-05-15T14:49:29.858Z,38.50
2017-05-15T14:51:58.072Z,39.60
2017-05-15T14:54:27.016Z,39.50
2017-05-15T14:56:55.243Z,40.00
2017-05-15T14:59:24.197Z,35.90
2017-05-15T15:01:52.403Z,38.60
2017-05-15T15:04:21.626Z,40.20
2017-05-15T15:06:49.857Z,39.90
2017-05-15T15:09:18.874Z,37.90
2017-05-15T15:11:47.100Z,37.40
2017-05-15T15:14:15.315Z,38.80
2017-05-15T15:16:44.258Z,39.40
2017-05-15T15:19:12.475Z,39.20
2017-05-15T15:21:41.429Z,39.30
2017-05-15T15:24:09.652Z,39.40
2017-05-15T15:26:38.611Z,39.10
2017-05-15T15:29:06.827Z,39.10
2017-05-15T15:31:35.078Z,38.90
2017-05-15T15:34:04.035Z,39.80
2017-05-15T15:36:32.255Z,39.80
2017-05-15T15:38:59.707Z,39.80
2017-05-15T15:41:28.655Z,37.80
2017-05-15T15:43:56.868Z,38.20
2017-05-15T15:46:25.852Z,37.90
2017-05-15T15:48:54.837Z,37.50
2017-05-15T15:51:23.042Z,37.30
2017-05-15T15:53:51.258Z,37.70
2017-05-15T15:56:19.476Z,38.00
2017-05-15T15:58:48.423Z,38.50
2017-05-15T16:01:16.635Z,36.80
2017-05-15T16:03:45.593Z,36.40
2017-05-15T16:06:13.808Z,35.80
2017-05-15T16:08:42.760Z,37.30
2017-05-15T16:11:10.973Z,37.10
2017-05-15T16:13:39.926Z,37.90
2017-05-15T16:16:08.167Z,36.90
2017-05-15T16:18:36.379Z,38.60
2017-05-15T16:21:04.595Z,38.10
2017-05-15T16:23:33.558Z,38.20
2017-05-15T16:26:01.779Z,37.70
2017-05-15T16:28:30.002Z,38.70
2017-05-15T16:30:58.218Z,38.50
2017-05-15T16:33:26.439Z,37.70
2017-05-15T16:35:54.643Z,37.30
2017-05-15T16:38:23.615Z,37.00
2017-05-15T16:40:52.191Z,36.60
2017-05-15T16:43:20.408Z,37.70
2017-05-15T16:45:48.623Z,39.00
2017-05-15T16:48:16.840Z,38.00
2017-05-15T16:50:45.804Z,38.40
2017-05-15T16:53:14.015Z,37.20
2017-05-15T16:55:42.971Z,36.90
2017-05-15T16:58:11.231Z,36.90
2017-05-15T17:00:39.504Z,37.40
2017-05-15T17:03:07.719Z,37.00
2017-05-15T17:05:35.935Z,38.30
2017-05-15T17:08:04.149Z,39.30
2017-05-15T17:10:32.367Z,38.80
2017-05-15T17:13:01.320Z,38.70
2017-05-15T17:15:29.538Z,38.90
2017-05-15T17:17:58.483Z,39.00
2017-05-15T17:20:26.764Z,39.60
2017-05-15T17:22:54.983Z,38.70
2017-05-15T17:25:23.945Z,40.20
2017-05-15T17:27:52.159Z,39.50
2017-05-15T17:30:20.373Z,39.30
2017-05-15T17:32:49.559Z,40.30
2017-05-15T17:35:18.508Z,40.60
2017-05-15T17:37:46.791Z,40.10
2017-05-15T17:40:15.550Z,39.60
2017-05-15T17:42:43.856Z,39.70
2017-05-15T17:45:12.816Z,40.30
2017-05-15T17:47:41.034Z,40.10
2017-05-15T17:50:09.243Z,39.50
2017-05-15T17:52:38.472Z,40.40
2017-05-15T17:55:06.747Z,40.50
2017-05-15T17:57:35.097Z,40.20
2017-05-15T18:00:03.303Z,40.50
2017-05-15T18:02:32.265Z,40.90
2017-05-15T18:05:00.613Z,41.70
2017-05-15T18:07:28.880Z,41.50
2017-05-15T18:09:57.090Z,41.90
2017-05-15T18:12:25.320Z,42.20
2017-05-15T18:14:53.525Z,41.90
2017-05-15T18:17:22.483Z,42.20
2017-05-15T18:19:50.699Z,42.00
2017-05-15T18:22:18.924Z,42.80
2017-05-15T18:24:47.159Z,42.80
2017-05-15T18:27:15.378Z,43.10
2017-05-15T18:29:43.596Z,44.10
2017-05-15T18:32:11.807Z,44.70
2017-05-15T18:34:40.042Z,44.70
2017-05-15T18:37:08.255Z,45.20
2017-05-15T18:39:36.468Z,45.40
2017-05-15T18:42:05.422Z,44.80
2017-05-15T18:44:33.632Z,45.10
2017-05-15T18:47:02.583Z,44.90
2017-05-15T18:49:30.799Z,46.50
2017-05-15T18:51:59.023Z,46.00
2017-05-15T18:54:27.983Z,47.40
2017-05-15T18:56:56.201Z,50.10
2017-05-15T18:59:24.415Z,53.90
2017-05-15T19:01:52.634Z,56.50
2017-05-15T19:04:21.587Z,58.60
2017-05-15T19:06:49.810Z,59.60
2017-05-15T19:09:18.763Z,60.50
2017-05-15T19:11:46.971Z,60.20
2017-05-15T19:14:15.924Z,61.90
2017-05-15T19:16:44.135Z,63.20
2017-05-15T19:19:13.082Z,64.40
2017-05-15T19:21:41.291Z,65.20
2017-05-15T19:24:10.247Z,66.20
2017-05-15T19:26:38.455Z,67.30
2017-05-15T19:29:07.411Z,67.40
2017-05-15T19:31:35.619Z,68.00
2017-05-15T19:34:04.596Z,68.30
2017-05-15T19:36:33.631Z,68.40
2017-05-15T19:39:01.860Z,68.90
2017-05-15T19:41:30.087Z,69.50
2017-05-15T19:43:58.302Z,69.70
2017-05-15T19:46:26.512Z,69.90
2017-05-15T19:48:55.459Z,69.30
2017-05-15T19:51:23.677Z,68.70
2017-05-15T19:53:51.908Z,68.30
2017-05-15T19:56:20.124Z,69.40
2017-05-15T19:58:49.075Z,69.50
2017-05-15T20:01:17.296Z,69.70
2017-05-15T20:03:45.515Z,69.50
2017-05-15T20:06:13.759Z,69.50
2017-05-15T20:08:41.983Z,68.30
2017-05-15T20:11:10.192Z,67.70
2017-05-15T20:13:38.448Z,67.80
2017-05-15T20:16:07.681Z,69.20
2017-05-15T20:18:35.898Z,70.00
2017-05-15T20:21:04.109Z,70.30
2017-05-15T20:23:33.063Z,70.80
2017-05-15T20:26:01.268Z,70.50
2017-05-15T20:28:30.282Z,70.70
2017-05-15T20:30:58.452Z,71.30
2017-05-15T20:33:26.742Z,72.10
2017-05-15T20:35:55.655Z,71.50
2017-05-15T20:38:23.896Z,71.00
2017-05-15T20:40:52.116Z,71.40
2017-05-15T20:43:20.332Z,72.00
2017-05-15T20:45:49.287Z,71.40
2017-05-15T20:48:17.492Z,71.40
2017-05-15T20:50:46.448Z,71.60
2017-05-15T20:53:14.659Z,72.00
2017-05-15T20:55:43.878Z,72.30
2017-05-15T20:58:12.084Z,72.90
2017-05-15T21:00:40.302Z,73.10
2017-05-15T21:03:09.260Z,73.90
2017-05-15T21:05:37.464Z,73.30
2017-05-15T21:08:06.437Z,73.90
2017-05-15T21:10:34.642Z,74.10
2017-05-15T21:13:02.863Z,74.70
2017-05-15T21:15:31.068Z,74.30
2017-05-15T21:18:00.027Z,74.70
2017-05-15T21:20:28.240Z,74.60
2017-05-15T21:22:57.200Z,74.20
2017-05-15T21:25:25.409Z,74.30
2017-05-15T21:42:12.792Z,75.10
2017-05-15T21:44:41.016Z,74.80
2017-05-15T21:47:09.244Z,75.20
2017-05-15T21:49:37.468Z,74.80
2017-05-15T21:52:05.675Z,75.10
2017-05-15T21:54:34.637Z,75.50
2017-05-15T21:57:02.861Z,75.50
2017-05-15T21:59:31.085Z,75.80
2017-05-15T22:02:03.317Z,75.90
2017-05-15T22:10:19.535Z,76.60
2017-05-15T22:12:47.749Z,76.70
2017-05-15T22:15:16.699Z,76.60
2017-05-15T22:17:44.907Z,76.60
2017-05-15T22:20:13.879Z,76.80
2017-05-15T22:22:42.093Z,77.20
2017-05-15T22:25:10.308Z,76.70
2017-05-15T22:27:38.525Z,76.40
2017-05-15T22:30:06.748Z,76.20
2017-05-15T22:32:34.969Z,76.10
2017-05-15T22:35:03.920Z,76.80
2017-05-15T22:37:32.145Z,76.60
2017-05-15T22:40:00.368Z,76.70
2017-05-15T22:42:28.583Z,77.00
2017-05-15T22:44:57.535Z,77.40
2017-05-15T22:47:25.752Z,77.70
2017-05-15T22:49:54.700Z,77.90
2017-05-15T22:52:22.910Z,78.80
2017-05-15T22:54:51.877Z,78.80
2017-05-15T22:57:20.112Z,78.90
2017-05-15T22:59:48.327Z,78.80
2017-05-15T23:02:16.533Z,78.70
2017-05-15T23:04:45.487Z,79.30
2017-05-15T23:07:13.703Z,79.20
2017-05-15T23:09:41.924Z,79.30
2017-05-15T23:12:10.135Z,79.40
2017-05-15T23:14:38.347Z,79.60
2017-05-15T23:17:06.551Z,79.90
2017-05-15T23:19:34.762Z,80.20
2017-05-15T23:22:03.056Z,80.10
2017-05-15T23:24:31.276Z,80.10
2017-05-15T23:26:59.492Z,80.30
2017-05-15T23:29:28.458Z,80.70
2017-05-15T23:31:56.668Z,81.00
2017-05-15T23:34:24.887Z,81.40
2017-05-15T23:36:53.117Z,82.50
2017-05-15T23:39:21.332Z,82.50
2017-05-15T23:41:49.552Z,84.20
2017-05-15T23:44:17.759Z,83.80
2017-05-15T23:46:46.718Z,83.30
2017-05-15T23:49:14.928Z,83.50
2017-05-15T23:51:43.883Z,84.30
2017-05-15T23:54:12.092Z,83.80
2017-05-15T23:56:41.051Z,84.10
2017-05-15T23:59:09.252Z,84.20
